createdAt,value
2019-05-23T00:01:09.043Z,219.27
2019-05-23T00:03:55.666Z,228.23
2019-05-23T00:06:25.822Z,222.50
2019-05-23T00:08:55.419Z,221.33
2019-05-23T00:11:41.702Z,225.70
2019-05-23T00:14:24.043Z,228.27
2019-05-23T00:16:54.108Z,222.33
2019-05-23T00:19:22.990Z,232.43
2019-05-23T00:21:51.582Z,224.20
2019-05-23T00:24:20.117Z,233.27
2019-05-23T00:26:48.541Z,231.57
2019-05-23T00:29:17.754Z,224.83
2019-05-23T00:31:47.865Z,229.57
2019-05-23T00:34:16.918Z,230.37
2019-05-23T00:36:46.275Z,228.57
2019-05-23T00:39:16.124Z,235.23
2019-05-23T00:41:44.849Z,232.57
2019-05-23T00:44:13.708Z,227.60
2019-05-23T00:46:43.919Z,229.27
2019-05-23T00:49:13.043Z,232.80
2019-05-23T00:51:41.444Z,235.27
2019-05-23T00:54:11.252Z,224.50
2019-05-23T00:56:39.692Z,237.13
2019-05-23T00:59:09.109Z,238.53
2019-05-23T01:01:39.128Z,239.73
2019-05-23T01:04:07.609Z,225.40
2019-05-23T01:06:36.391Z,234.20
2019-05-23T01:09:07.084Z,222.60
2019-05-23T01:11:36.527Z,228.43
2019-05-23T01:14:05.485Z,227.90
2019-05-23T01:16:34.121Z,231.43
2019-05-23T01:19:02.610Z,225.87
2019-05-23T01:21:41.701Z,223.00
2019-05-23T01:24:11.794Z,223.87
2019-05-23T01:26:40.300Z,221.23
2019-05-23T01:29:09.125Z,223.33
2019-05-23T01:31:45.334Z,228.40
2019-05-23T01:34:14.842Z,222.77
2019-05-23T01:36:43.708Z,233.80
2019-05-23T01:39:12.194Z,223.07
2019-05-23T01:41:41.558Z,223.43
2019-05-23T01:44:11.530Z,222.70
2019-05-23T01:46:41.226Z,228.07
2019-05-23T01:49:10.026Z,228.47
2019-05-23T01:51:38.441Z,222.63
2019-05-23T01:54:07.836Z,220.07
2019-05-23T01:56:37.451Z,225.60
2019-05-23T01:59:06.427Z,225.30
2019-05-23T02:01:37.622Z,222.97
2019-05-23T02:04:06.522Z,218.97
2019-05-23T02:06:35.302Z,225.87
2019-05-23T02:09:05.098Z,221.03
2019-05-23T02:11:33.784Z,215.73
2019-05-23T02:14:02.204Z,221.23
2019-05-23T02:16:32.155Z,212.00
2019-05-23T02:19:20.392Z,187.33
2019-05-23T02:21:50.394Z,185.70
2019-05-23T02:24:18.818Z,174.07
2019-05-23T02:26:48.052Z,215.90
2019-05-23T02:29:17.435Z,217.57
2019-05-23T02:31:46.227Z,224.47
2019-05-23T02:34:15.453Z,133.77
2019-05-23T02:36:44.398Z,225.30
2019-05-23T02:39:23.442Z,220.60
2019-05-23T02:41:56.719Z,218.37
2019-05-23T02:44:26.004Z,217.33
2019-05-23T02:47:05.186Z,180.17
2019-05-23T02:49:34.771Z,211.33
2019-05-23T02:52:23.346Z,222.83
2019-05-23T02:54:52.297Z,217.07
2019-05-23T02:57:22.058Z,214.50
2019-05-23T02:59:53.090Z,232.47
2019-05-23T03:02:39.494Z,214.67
2019-05-23T03:05:15.075Z,214.63
2019-05-23T03:07:45.250Z,205.40
2019-05-23T03:10:14.149Z,163.20
2019-05-23T03:12:43.846Z,151.23
2019-05-23T03:15:14.580Z,214.40
2019-05-23T03:17:43.190Z,199.47
2019-05-23T03:20:13.543Z,214.40
2019-05-23T03:22:49.290Z,193.77
2019-05-23T03:25:31.474Z,151.97
2019-05-23T03:28:01.059Z,138.93
2019-05-23T03:30:31.275Z,201.33
2019-05-23T03:33:01.379Z,216.13
2019-05-23T03:35:34.596Z,218.03
2019-05-23T03:38:04.178Z,190.13
2019-05-23T03:40:33.241Z,215.27
2019-05-23T03:43:02.790Z,150.70
2019-05-23T03:45:32.978Z,167.97
2019-05-23T03:48:02.114Z,175.33
2019-05-23T03:50:30.590Z,174.77
2019-05-23T03:52:59.667Z,179.07
2019-05-23T03:55:28.868Z,117.80
2019-05-23T03:57:57.990Z,161.07
2019-05-23T04:00:28.170Z,61.37
2019-05-23T04:02:57.600Z,84.70
2019-05-23T04:05:26.236Z,69.80
2019-05-23T04:07:54.710Z,71.67
2019-05-23T04:10:23.734Z,55.23
2019-05-23T04:12:52.247Z,39.90
2019-05-23T04:15:22.175Z,90.90
2019-05-23T04:17:50.591Z,29.00
2019-05-23T04:20:19.340Z,67.23
2019-05-23T04:22:48.055Z,87.13
2019-05-23T04:25:16.666Z,153.83
2019-05-23T04:27:45.403Z,172.60
2019-05-23T04:30:15.573Z,119.93
2019-05-23T04:32:44.141Z,109.83
2019-05-23T04:35:12.778Z,104.30
2019-05-23T04:37:41.254Z,94.20
2019-05-23T04:40:11.312Z,170.13
2019-05-23T04:42:40.131Z,126.53
2019-05-23T04:45:08.621Z,199.90
2019-05-23T04:47:38.344Z,164.87
2019-05-23T04:50:08.706Z,184.77
2019-05-23T04:52:38.689Z,110.27
2019-05-23T04:55:10.669Z,88.17
2019-05-23T04:57:40.910Z,70.97
2019-05-23T05:00:13.236Z,133.83
2019-05-23T05:02:41.784Z,76.17
2019-05-23T05:05:11.868Z,225.00
2019-05-23T05:07:40.632Z,224.07
2019-05-23T05:10:10.150Z,130.67
2019-05-23T05:12:39.078Z,112.13
2019-05-23T05:15:10.252Z,53.77
2019-05-23T05:17:39.694Z,27.50
2019-05-23T05:20:08.323Z,16.43
2019-05-23T05:22:37.192Z,27.30
2019-05-23T05:25:07.503Z,26.83
2019-05-23T05:27:36.575Z,20.33
2019-05-23T05:30:08.332Z,27.50
2019-05-23T05:32:44.696Z,18.73
2019-05-23T05:35:09.285Z,44.43
2019-05-23T05:37:37.827Z,31.47
2019-05-23T05:40:08.301Z,17.43
2019-05-23T05:42:36.813Z,48.53
2019-05-23T05:45:10.239Z,40.03
2019-05-23T05:47:39.018Z,52.83
2019-05-23T05:50:09.553Z,117.80
2019-05-23T05:52:39.030Z,70.43
2019-05-23T05:55:07.646Z,32.50
2019-05-23T05:57:36.778Z,25.40
2019-05-23T06:00:21.172Z,115.93
2019-05-23T06:03:03.631Z,205.53
2019-05-23T06:05:29.276Z,146.60
2019-05-23T06:07:58.283Z,189.33
2019-05-23T06:10:27.174Z,183.17
2019-05-23T06:12:55.751Z,171.83
2019-05-23T06:15:25.457Z,147.40
2019-05-23T06:17:54.082Z,146.87
2019-05-23T06:20:22.579Z,121.43
2019-05-23T06:22:52.281Z,75.63
2019-05-23T06:25:21.174Z,98.87
2019-05-23T06:27:49.707Z,138.70
2019-05-23T06:30:18.429Z,109.00
2019-05-23T06:32:46.914Z,57.23
2019-05-23T06:35:14.783Z,59.40
2019-05-23T06:37:43.557Z,104.53
2019-05-23T06:40:12.491Z,38.33
2019-05-23T06:42:40.902Z,141.47
2019-05-23T06:45:10.626Z,64.33
2019-05-23T06:47:39.650Z,75.53
2019-05-23T06:50:16.205Z,133.17
2019-05-23T06:52:44.755Z,226.80
2019-05-23T06:55:13.477Z,137.77
2019-05-23T06:57:42.006Z,90.50
2019-05-23T07:00:10.575Z,45.70
2019-05-23T07:02:40.234Z,88.70
2019-05-23T07:05:08.849Z,214.87
2019-05-23T07:07:38.844Z,222.37
2019-05-23T07:10:08.136Z,224.83
2019-05-23T07:12:36.577Z,93.70
2019-05-23T07:15:09.407Z,50.63
2019-05-23T07:17:38.270Z,19.80
2019-05-23T07:20:10.116Z,113.93
2019-05-23T07:22:38.948Z,149.70
2019-05-23T07:25:07.517Z,206.30
2019-05-23T07:27:36.160Z,138.47
2019-05-23T07:30:14.204Z,218.07
2019-05-23T07:32:42.704Z,215.57
2019-05-23T07:35:11.253Z,155.73
2019-05-23T07:37:39.829Z,79.53
2019-05-23T07:40:11.246Z,155.10
2019-05-23T07:42:40.021Z,117.53
2019-05-23T07:45:19.041Z,142.40
2019-05-23T07:47:47.521Z,85.57
2019-05-23T07:50:16.004Z,49.77
2019-05-23T07:52:44.564Z,19.23
2019-05-23T07:55:20.330Z,216.57
2019-05-23T07:57:48.873Z,177.80
2019-05-23T08:00:19.023Z,231.10
2019-05-23T08:02:47.631Z,228.87
2019-05-23T08:05:16.793Z,219.60
2019-05-23T08:07:46.417Z,232.77
2019-05-23T08:10:30.935Z,220.30
2019-05-23T08:12:45.621Z,231.43
2019-05-23T08:15:14.274Z,222.00
2019-05-23T08:17:43.001Z,225.47
2019-05-23T08:20:12.065Z,229.97
2019-05-23T08:22:40.651Z,240.07
2019-05-23T08:25:09.212Z,224.33
2019-05-23T08:27:37.753Z,225.87
2019-05-23T08:30:07.934Z,233.83
2019-05-23T08:32:36.485Z,210.73
2019-05-23T08:35:07.067Z,211.33
2019-05-23T08:37:36.074Z,132.90
2019-05-23T08:40:06.176Z,212.43
2019-05-23T08:42:36.567Z,223.00
2019-05-23T08:45:09.628Z,234.18
2019-05-23T08:47:39.030Z,216.63
2019-05-23T08:50:09.433Z,160.63
2019-05-23T08:52:37.971Z,149.97
2019-05-23T08:55:21.555Z,68.43
2019-05-23T08:57:50.993Z,17.87
2019-05-23T09:00:20.773Z,13.70
2019-05-23T09:02:49.582Z,13.53
2019-05-23T09:05:19.171Z,12.13
2019-05-23T09:07:48.306Z,27.20
2019-05-23T09:10:18.008Z,225.47
2019-05-23T09:12:48.121Z,231.77
2019-05-23T09:15:16.803Z,229.73
2019-05-23T09:17:52.777Z,97.63
2019-05-23T09:20:18.119Z,134.23
2019-05-23T09:22:46.652Z,22.40
2019-05-23T09:25:15.312Z,185.43
2019-05-23T09:27:45.596Z,228.60
2019-05-23T09:30:14.547Z,228.97
2019-05-23T09:32:43.143Z,106.07
2019-05-23T09:35:20.845Z,7.47
2019-05-23T09:37:42.444Z,34.10
2019-05-23T09:40:11.402Z,231.63
2019-05-23T09:42:39.876Z,223.17
2019-05-23T09:45:08.378Z,227.33
2019-05-23T09:47:37.121Z,225.83
2019-05-23T09:50:08.090Z,232.37
2019-05-23T09:52:37.063Z,199.80
2019-05-23T09:55:08.398Z,191.87
2019-05-23T09:57:36.855Z,202.00
2019-05-23T10:00:09.175Z,93.10
2019-05-23T10:02:37.743Z,231.67
2019-05-23T10:05:11.560Z,222.43
2019-05-23T10:07:40.161Z,253.17
2019-05-23T10:10:30.305Z,234.50
2019-05-23T10:12:59.743Z,229.03
2019-05-23T10:15:38.881Z,237.77
2019-05-23T10:18:09.614Z,191.07
2019-05-23T10:20:39.373Z,203.17
2019-05-23T10:23:07.950Z,233.50
2019-05-23T10:25:36.561Z,231.33
2019-05-23T10:28:06.868Z,252.07
2019-05-23T10:30:36.859Z,246.63
2019-05-23T10:33:12.383Z,247.83
2019-05-23T10:35:37.351Z,241.23
2019-05-23T10:38:06.110Z,255.43
2019-05-23T10:40:35.207Z,240.63
2019-05-23T10:43:03.887Z,248.97
2019-05-23T10:45:32.742Z,245.80
2019-05-23T10:48:01.494Z,251.67
2019-05-23T10:50:43.542Z,206.83
2019-05-23T10:53:00.729Z,139.27
2019-05-23T10:55:29.528Z,235.50
2019-05-23T10:57:58.081Z,240.30
2019-05-23T11:00:28.273Z,235.50
2019-05-23T11:02:57.043Z,238.83
2019-05-23T11:05:25.603Z,161.20
2019-05-23T11:07:54.466Z,94.37
2019-05-23T11:10:23.300Z,203.97
2019-05-23T11:12:52.142Z,238.23
2019-05-23T11:15:21.777Z,189.97
2019-05-23T11:17:53.425Z,241.63
2019-05-23T11:20:35.991Z,245.53
2019-05-23T11:23:05.753Z,233.33
2019-05-23T11:25:35.132Z,244.10
2019-05-23T11:28:16.515Z,242.97
2019-05-23T11:30:48.774Z,250.17
2019-05-23T11:33:17.858Z,239.87
2019-05-23T11:35:47.072Z,225.50
2019-05-23T11:38:15.806Z,233.33
2019-05-23T11:40:44.327Z,251.97
2019-05-23T11:43:13.410Z,219.43
2019-05-23T11:45:49.897Z,229.77
2019-05-23T11:48:18.839Z,212.87
2019-05-23T11:50:47.394Z,214.30
2019-05-23T11:53:16.954Z,218.57
2019-05-23T11:55:45.490Z,226.50
2019-05-23T11:58:14.477Z,223.97
2019-05-23T12:03:37.041Z,221.97
2019-05-23T12:06:06.343Z,218.37
2019-05-23T12:08:35.682Z,224.37
2019-05-23T12:11:05.023Z,227.93
2019-05-23T12:13:33.720Z,216.13
2019-05-23T12:16:04.227Z,220.27
2019-05-23T12:18:33.482Z,231.77
2019-05-23T12:21:01.988Z,248.07
2019-05-23T12:23:31.206Z,224.60
2019-05-23T12:25:59.817Z,222.57
2019-05-23T12:28:30.376Z,178.10
2019-05-23T12:30:59.608Z,205.60
2019-05-23T12:33:28.633Z,99.73
2019-05-23T12:35:57.312Z,121.50
2019-05-23T12:38:26.586Z,139.23
2019-05-23T12:40:56.139Z,217.93
2019-05-23T12:43:24.803Z,238.57
2019-05-23T12:45:53.333Z,235.60
2019-05-23T12:48:29.557Z,227.37
2019-05-23T12:51:05.244Z,227.40
2019-05-23T12:53:34.798Z,236.70
2019-05-23T12:56:04.047Z,233.80
2019-05-23T12:58:34.244Z,6.03
2019-05-23T13:01:04.468Z,67.10
2019-05-23T13:03:33.510Z,226.67
2019-05-23T13:06:02.142Z,213.17
2019-05-23T13:08:30.766Z,173.07
2019-05-23T13:10:59.396Z,209.60
2019-05-23T13:13:28.011Z,223.37
2019-05-23T13:15:56.604Z,216.10
2019-05-23T13:18:26.388Z,221.27
2019-05-23T13:20:58.698Z,214.63
2019-05-23T13:23:25.459Z,216.73
2019-05-23T13:25:54.104Z,217.77
2019-05-23T13:28:22.802Z,219.63
2019-05-23T13:30:51.498Z,221.43
2019-05-23T13:33:20.144Z,216.17
2019-05-23T13:35:48.865Z,227.67
2019-05-23T13:38:17.550Z,223.30
2019-05-23T13:40:46.145Z,218.97
2019-05-23T13:43:14.764Z,220.57
2019-05-23T13:45:44.007Z,221.37
2019-05-23T13:48:12.649Z,226.40
2019-05-23T13:50:41.273Z,221.77
2019-05-23T13:53:10.325Z,222.40
2019-05-23T13:55:38.983Z,222.37
2019-05-23T13:58:07.649Z,223.17
2019-05-23T14:00:36.613Z,213.27
2019-05-23T14:03:05.562Z,217.93
2019-05-23T14:05:34.380Z,212.87
2019-05-23T14:08:12.447Z,233.00
2019-05-23T14:10:33.688Z,222.60
2019-05-23T14:13:02.327Z,214.53
2019-05-23T14:15:41.752Z,214.10
2019-05-23T14:18:11.268Z,222.20
2019-05-23T14:20:41.195Z,210.77
2019-05-23T14:23:20.567Z,220.50
2019-05-23T14:25:50.801Z,216.30
2019-05-23T14:28:19.917Z,221.47
2019-05-23T14:30:55.812Z,226.23
2019-05-23T14:33:25.931Z,213.60
2019-05-23T14:35:56.834Z,219.40
2019-05-23T14:38:30.966Z,213.50
2019-05-23T14:40:57.640Z,212.00
2019-05-23T14:43:27.191Z,214.40
2019-05-23T14:46:09.303Z,215.40
2019-05-23T14:48:45.625Z,214.93
2019-05-23T14:51:34.242Z,212.00
2019-05-23T14:54:04.419Z,222.83
2019-05-23T14:56:34.623Z,230.33
2019-05-23T14:59:03.569Z,221.13
2019-05-23T15:01:33.765Z,226.77
2019-05-23T15:04:02.541Z,214.90
2019-05-23T15:06:31.194Z,229.07
2019-05-23T15:08:59.854Z,221.43
2019-05-23T15:11:28.592Z,217.20
2019-05-23T15:13:57.447Z,222.73
2019-05-23T15:16:26.180Z,212.67
2019-05-23T15:18:54.860Z,219.73
2019-05-23T15:21:24.431Z,229.00
2019-05-23T15:23:53.367Z,220.90
2019-05-23T15:26:23.631Z,117.50
2019-05-23T15:28:52.547Z,224.77
2019-05-23T15:31:21.518Z,221.00
2019-05-23T15:33:50.163Z,222.17
2019-05-23T15:36:18.885Z,230.63
2019-05-23T15:38:47.628Z,230.67
2019-05-23T15:41:16.392Z,219.13
2019-05-23T15:43:45.075Z,228.07
2019-05-23T15:46:13.664Z,218.33
2019-05-23T15:48:42.606Z,224.17
2019-05-23T15:51:12.731Z,213.67
2019-05-23T15:53:49.199Z,188.77
2019-05-23T15:56:28.237Z,147.87
2019-05-23T15:58:54.139Z,165.07
2019-05-23T16:01:24.259Z,195.17
2019-05-23T16:04:00.424Z,223.17
2019-05-23T16:06:33.213Z,221.70
2019-05-23T16:09:01.695Z,236.13
2019-05-23T16:11:30.257Z,222.83
2019-05-23T16:13:58.843Z,182.80
2019-05-23T16:16:28.302Z,216.90
2019-05-23T16:18:57.006Z,203.07
2019-05-23T16:21:26.686Z,218.30
2019-05-23T16:23:55.656Z,223.00
2019-05-23T16:26:24.342Z,221.33
2019-05-23T16:28:52.823Z,219.63
2019-05-23T16:31:21.400Z,217.77
2019-05-23T16:33:50.026Z,190.73
2019-05-23T16:36:18.664Z,218.13
2019-05-23T16:38:47.265Z,222.77
2019-05-23T16:41:15.975Z,171.47
2019-05-23T16:43:44.561Z,161.43
2019-05-23T16:46:13.226Z,208.23
2019-05-23T16:48:42.300Z,147.73
2019-05-23T16:51:10.995Z,138.87
2019-05-23T16:53:40.298Z,146.07
2019-05-23T16:56:10.540Z,148.73
2019-05-23T16:58:49.569Z,167.97
2019-05-23T17:01:25.776Z,113.47
2019-05-23T17:03:58.518Z,217.80
2019-05-23T17:06:34.838Z,135.87
2019-05-23T17:09:21.541Z,226.77
2019-05-23T17:11:51.758Z,180.37
2019-05-23T17:14:30.689Z,143.43
2019-05-23T17:17:07.791Z,230.33
2019-05-23T17:19:44.139Z,241.50
2019-05-23T17:22:18.207Z,182.90
2019-05-23T17:24:48.420Z,151.40
2019-05-23T17:27:18.643Z,229.97
2019-05-23T17:29:48.903Z,191.27
2019-05-23T17:32:19.118Z,118.37
2019-05-23T17:34:47.803Z,118.03
2019-05-23T17:37:16.529Z,61.17
2019-05-23T17:39:46.742Z,149.73
2019-05-23T17:42:15.317Z,80.53
2019-05-23T17:44:44.299Z,229.43
2019-05-23T17:47:12.867Z,147.53
2019-05-23T17:49:41.448Z,140.10
2019-05-23T17:52:10.350Z,210.37
2019-05-23T17:54:39.568Z,226.00
2019-05-23T17:57:09.143Z,124.13
2019-05-23T17:59:37.775Z,209.20
2019-05-23T18:02:07.523Z,182.77
2019-05-23T18:04:36.163Z,230.57
2019-05-23T18:07:05.949Z,171.63
2019-05-23T18:09:34.729Z,191.93
2019-05-23T18:12:04.414Z,215.20
2019-05-23T18:14:33.785Z,140.13
2019-05-23T18:17:02.346Z,99.60
2019-05-23T18:19:31.311Z,46.83
2019-05-23T18:21:59.986Z,224.00
2019-05-23T18:24:29.712Z,80.23
2019-05-23T18:26:58.526Z,12.97
2019-05-23T18:29:27.507Z,15.93
2019-05-23T18:31:56.539Z,18.87
2019-05-23T18:34:26.395Z,21.37
2019-05-23T18:36:56.484Z,16.87
2019-05-23T18:39:27.232Z,6.47
2019-05-23T18:41:56.199Z,5.83
2019-05-23T18:44:25.465Z,14.83
2019-05-23T18:46:59.054Z,7.77
2019-05-23T18:49:28.913Z,7.13
2019-05-23T18:51:58.179Z,14.37
2019-05-23T18:54:27.404Z,23.33
2019-05-23T18:56:59.112Z,9.73
2019-05-23T18:59:28.418Z,8.77
2019-05-23T19:01:57.197Z,24.97
2019-05-23T19:04:26.089Z,12.87
2019-05-23T19:06:55.107Z,21.77
2019-05-23T19:09:25.055Z,20.93
2019-05-23T19:11:53.818Z,19.43
2019-05-23T19:14:22.543Z,9.57
2019-05-23T19:16:51.330Z,15.00
2019-05-23T19:19:20.332Z,12.57
2019-05-23T19:21:49.537Z,9.00
2019-05-23T19:24:18.159Z,12.20
2019-05-23T19:26:49.224Z,259.13
2019-05-23T19:29:18.293Z,234.73
2019-05-23T19:31:47.383Z,220.43
2019-05-23T19:34:16.100Z,121.50
2019-05-23T19:36:44.841Z,105.47
2019-05-23T19:39:14.707Z,52.97
2019-05-23T19:41:43.360Z,32.63
2019-05-23T19:44:12.803Z,34.00
2019-05-23T19:46:41.497Z,47.20
2019-05-23T19:49:11.061Z,12.47
2019-05-23T19:51:40.210Z,21.37
2019-05-23T19:54:09.127Z,15.27
2019-05-23T19:56:38.693Z,147.67
2019-05-23T19:59:07.585Z,208.90
2019-05-23T20:01:37.979Z,105.50
2019-05-23T20:04:08.278Z,73.37
2019-05-23T20:06:37.530Z,27.00
2019-05-23T20:09:09.635Z,40.83
2019-05-23T20:11:53.303Z,18.90
2019-05-23T20:14:09.192Z,15.37
2019-05-23T20:16:37.977Z,29.80
2019-05-23T20:19:06.695Z,42.03
2019-05-23T20:21:35.331Z,48.10
2019-05-23T20:24:03.901Z,145.13
2019-05-23T20:26:32.528Z,171.43
2019-05-23T20:29:03.270Z,120.13
2019-05-23T20:31:31.413Z,165.37
2019-05-23T20:34:00.079Z,164.13
2019-05-23T20:36:28.791Z,215.70
2019-05-23T20:38:57.415Z,206.93
2019-05-23T20:41:26.090Z,241.37
2019-05-23T20:43:54.742Z,258.00
2019-05-23T20:46:23.525Z,208.97
2019-05-23T20:48:52.670Z,235.73
2019-05-23T20:51:22.817Z,240.40
2019-05-23T20:53:51.674Z,233.83
2019-05-23T20:56:20.307Z,202.33
2019-05-23T20:58:48.804Z,98.27
2019-05-23T21:01:18.994Z,85.83
2019-05-23T21:03:48.489Z,22.80
2019-05-23T21:06:17.198Z,22.93
2019-05-23T21:08:45.775Z,46.10
2019-05-23T21:11:15.208Z,112.07
2019-05-23T21:13:43.826Z,128.30
2019-05-23T21:16:12.603Z,146.00
2019-05-23T21:18:41.125Z,187.37
2019-05-23T21:21:09.705Z,177.00
2019-05-23T21:23:38.581Z,156.00
2019-05-23T21:26:07.178Z,50.80
2019-05-23T21:28:35.675Z,19.23
2019-05-23T21:31:06.806Z,21.17
2019-05-23T21:33:35.508Z,15.50
2019-05-23T21:36:04.189Z,15.77
2019-05-23T21:38:33.112Z,13.00
2019-05-23T21:41:03.365Z,18.27
2019-05-23T21:43:31.796Z,12.43
2019-05-23T21:46:00.375Z,17.13
2019-05-23T21:48:28.902Z,12.13
2019-05-23T21:50:57.394Z,28.13
2019-05-23T21:53:25.949Z,41.30
2019-05-23T21:55:54.384Z,12.53
2019-05-23T21:58:23.135Z,14.47
2019-05-23T22:01:08.506Z,32.03
2019-05-23T22:03:54.254Z,30.43
2019-05-23T22:06:34.426Z,46.17
2019-05-23T22:09:04.496Z,67.13
2019-05-23T22:11:32.983Z,20.00
2019-05-23T22:14:01.610Z,13.67
2019-05-23T22:16:30.446Z,53.60
2019-05-23T22:18:59.321Z,132.80
2019-05-23T22:21:28.203Z,144.67
2019-05-23T22:23:56.698Z,68.47
2019-05-23T22:26:25.350Z,17.20
2019-05-23T22:28:54.355Z,15.07
2019-05-23T22:31:24.093Z,23.30
2019-05-23T22:34:12.188Z,12.77
2019-05-23T22:36:40.879Z,19.67
2019-05-23T22:39:09.538Z,22.87
2019-05-23T22:41:38.164Z,25.77
2019-05-23T22:44:08.192Z,17.70
2019-05-23T22:46:36.778Z,17.40
2019-05-23T22:49:05.236Z,11.93
2019-05-23T22:51:33.654Z,54.77
2019-05-23T22:54:02.527Z,76.53
2019-05-23T22:56:31.123Z,143.17
2019-05-23T22:58:59.901Z,120.63
2019-05-23T23:01:29.623Z,35.50
2019-05-23T23:03:58.143Z,18.23
2019-05-23T23:06:27.281Z,18.20
2019-05-23T23:08:55.776Z,19.53
2019-05-23T23:11:24.235Z,37.53
2019-05-23T23:13:52.750Z,158.27
2019-05-23T23:16:21.348Z,174.83
2019-05-23T23:18:50.138Z,73.63
2019-05-23T23:21:18.621Z,32.93
2019-05-23T23:23:47.157Z,11.37
2019-05-23T23:26:15.710Z,17.43
2019-05-23T23:28:44.266Z,109.27
2019-05-23T23:31:12.847Z,110.03
2019-05-23T23:33:42.458Z,34.73
2019-05-23T23:36:10.994Z,21.40
2019-05-23T23:38:39.645Z,23.63
2019-05-23T23:41:08.191Z,19.77
2019-05-23T23:43:36.712Z,20.17
2019-05-23T23:46:23.201Z,27.80
2019-05-23T23:49:09.597Z,27.73
2019-05-23T23:51:56.197Z,17.03
2019-05-23T23:54:42.560Z,17.77
2019-05-23T23:57:28.837Z,17.37
2019-05-23T23:59:58.883Z,23.83
